Time;durP1;ratioP1;P1;durP2;ratioP2;P2;SDS_P1;SDS_P2;PMS_P1;PMS_P2;Temp;Humidity;BMP_temperature;BMP_pressure;BME280_temperature;BME280_humidity;BME280_pressure;Samples;Min_cycle;Max_cycle;Signal;HPM_P1;HPM_P2
2022/06/26 00:00:24;;;;;;;31.35;5.97;;;;;;;18.18;100.00;97705.19;5007390;28;20022;-58
2022/06/26 00:02:50;;;;;;;23.15;5.82;;;;;;;18.29;100.00;97697.25;5011920;28;20049;-59
2022/06/26 00:05:15;;;;;;;30.75;6.03;;;;;;;18.33;100.00;97702.31;5010040;28;20017;-58
2022/06/26 00:07:40;;;;;;;27.38;5.82;;;;;;;18.02;100.00;97707.31;5008272;28;20033;-58
2022/06/26 00:10:06;;;;;;;40.53;7.40;;;;;;;18.15;100.00;97705.41;5008438;28;20936;-58
2022/06/26 00:12:33;;;;;;;30.15;5.68;;;;;;;18.41;100.00;97708.66;5009678;28;20041;-59
2022/06/26 00:14:59;;;;;;;26.02;5.28;;;;;;;18.48;100.00;97714.31;5009991;28;20017;-57
2022/06/26 00:17:24;;;;;;;29.58;6.22;;;;;;;18.14;100.00;97719.56;5005665;28;20661;-58
2022/06/26 00:19:50;;;;;;;24.35;6.00;;;;;;;17.79;100.00;97725.69;5009442;28;20017;-58
2022/06/26 00:22:17;;;;;;;24.90;5.97;;;;;;;17.97;100.00;97731.38;5007843;28;20049;-59
2022/06/26 00:24:42;;;;;;;28.10;5.95;;;;;;;18.36;100.00;97728.47;5011801;28;20539;-57
2022/06/26 00:27:08;;;;;;;27.58;6.10;;;;;;;17.94;100.00;97728.13;5007807;28;20099;-57
2022/06/26 00:29:34;;;;;;;29.15;6.15;;;;;;;17.99;100.00;97736.56;5007964;28;20026;-57
2022/06/26 00:32:04;;;;;;;34.65;6.82;;;;;;;17.79;100.00;97740.66;5009324;28;20041;-57
2022/06/26 00:34:30;;;;;;;29.98;6.95;;;;;;;17.68;100.00;97744.09;5007591;28;20080;-57
2022/06/26 00:36:56;;;;;;;30.20;6.13;;;;;;;17.73;100.00;97736.69;5009502;28;20045;-57
2022/06/26 00:39:22;;;;;;;27.48;5.95;;;;;;;18.01;100.00;97732.00;5009150;28;20037;-58
2022/06/26 00:41:47;;;;;;;29.25;6.55;;;;;;;17.51;100.00;97751.44;5006188;28;20683;-57
2022/06/26 00:44:24;;;;;;;27.35;6.30;;;;;;;17.36;100.00;97755.22;5010232;28;20450;-59
2022/06/26 00:46:51;;;;;;;27.20;6.60;;;;;;;17.68;100.00;97757.28;5005864;28;20034;-57
2022/06/26 00:49:17;;;;;;;27.75;5.88;;;;;;;17.78;100.00;97745.09;5009357;28;20029;-60
2022/06/26 00:51:49;;;;;;;29.48;6.47;;;;;;;17.77;100.00;97753.94;5005999;28;20041;-58
2022/06/26 00:54:18;;;;;;;34.13;6.63;;;;;;;17.36;100.00;97760.47;5007625;28;20025;-57
2022/06/26 00:56:44;;;;;;;31.88;6.95;;;;;;;17.17;100.00;97768.00;5006680;28;20145;-60
2022/06/26 00:59:09;;;;;;;29.10;6.55;;;;;;;17.11;100.00;97769.28;5006290;28;20212;-57
2022/06/26 01:01:35;;;;;;;25.77;5.80;;;;;;;16.88;100.00;97776.22;5007593;28;20582;-57
2022/06/26 01:04:02;;;;;;;30.65;6.78;;;;;;;16.65;100.00;97781.28;5008762;28;20017;-57
2022/06/26 01:06:29;;;;;;;27.63;6.30;;;;;;;16.76;100.00;97784.00;5009573;28;20117;-58
2022/06/26 01:08:54;;;;;;;31.23;6.68;;;;;;;17.15;100.00;97782.16;5005763;28;20021;-57
2022/06/26 01:11:20;;;;;;;25.17;6.07;;;;;;;17.27;100.00;97775.16;5009349;28;20185;-59
2022/06/26 01:13:51;;;;;;;28.95;6.40;;;;;;;16.99;100.00;97778.94;5009568;28;20037;-57
2022/06/26 01:16:18;;;;;;;31.23;7.15;;;;;;;16.93;100.00;97779.38;5009020;28;20025;-58
2022/06/26 01:18:46;;;;;;;27.63;6.60;;;;;;;16.89;100.00;97778.75;5007557;28;20035;-58
2022/06/26 01:21:11;;;;;;;22.60;5.90;;;;;;;16.98;100.00;97777.22;5004838;28;20034;-57
2022/06/26 01:23:37;;;;;;;24.13;6.28;;;;;;;16.98;100.00;97782.50;5010350;28;20026;-58
2022/06/26 01:26:04;;;;;;;32.78;7.18;;;;;;;17.05;100.00;97775.84;5007545;28;20042;-59
2022/06/26 01:28:29;;;;;;;33.10;6.68;;;;;;;17.02;100.00;97773.44;5010093;28;20030;-57
2022/06/26 01:30:54;;;;;;;25.10;6.15;;;;;;;17.01;100.00;97782.28;5010565;28;20048;-58
2022/06/26 01:33:20;;;;;;;25.45;6.35;;;;;;;16.97;100.00;97780.84;5012545;28;20514;-57
2022/06/26 01:35:45;;;;;;;26.15;5.90;;;;;;;17.32;100.00;97777.47;5011732;28;20068;-57
2022/06/26 01:38:13;;;;;;;29.00;6.28;;;;;;;17.29;100.00;97775.03;5013628;28;20876;-59
2022/06/26 01:40:39;;;;;;;26.70;6.15;;;;;;;17.24;100.00;97778.03;5019358;28;20058;-58
2022/06/26 01:43:05;;;;;;;27.30;6.18;;;;;;;17.21;100.00;97785.31;5011312;28;20434;-58
2022/06/26 01:45:30;;;;;;;27.48;6.22;;;;;;;16.86;100.00;97783.38;5013726;28;20502;-59
2022/06/26 01:47:56;;;;;;;25.33;6.20;;;;;;;16.80;100.00;97794.28;5012774;28;20468;-58
2022/06/26 01:50:21;;;;;;;30.42;6.75;;;;;;;16.67;100.00;97789.03;5009363;28;20038;-58
2022/06/26 01:52:46;;;;;;;25.02;6.43;;;;;;;16.65;100.00;97791.81;5013164;28;20911;-58
2022/06/26 01:55:12;;;;;;;27.45;6.35;;;;;;;16.75;100.00;97790.19;5010112;28;20515;-58
2022/06/26 01:57:37;;;;;;;24.92;6.53;;;;;;;16.74;100.00;97800.84;5011918;28;20275;-58
2022/06/26 02:00:07;;;;;;;44.08;8.13;;;;;;;16.64;100.00;97794.53;5009478;28;20789;-58
2022/06/26 02:02:33;;;;;;;33.67;6.68;;;;;;;16.89;100.00;97793.69;5010774;28;20131;-57
2022/06/26 02:04:59;;;;;;;27.67;6.50;;;;;;;16.80;100.00;97786.41;5011131;28;20450;-57
2022/06/26 02:07:25;;;;;;;34.33;7.15;;;;;;;16.64;100.00;97790.09;5008516;28;20068;-58
2022/06/26 02:15:18;;;;;;;26.02;6.13;;;;;;;16.61;100.00;97795.56;5011809;28;20036;-59
2022/06/26 02:17:44;;;;;;;24.65;6.15;;;;;;;16.52;100.00;97790.94;5012124;28;20025;-57
2022/06/26 02:20:10;;;;;;;39.45;7.20;;;;;;;16.43;100.00;97796.84;5010025;28;20034;-58
2022/06/26 02:22:35;;;;;;;30.00;6.15;;;;;;;16.73;100.00;97802.63;5012038;28;20037;-58
2022/06/26 02:25:01;;;;;;;30.58;6.38;;;;;;;16.75;100.00;97798.09;5011545;28;20029;-59
2022/06/26 02:27:27;;;;;;;26.30;6.38;;;;;;;16.43;100.00;97802.09;5010240;28;20037;-58
2022/06/26 02:29:52;;;;;;;30.65;6.55;;;;;;;16.52;100.00;97807.59;5010086;28;20063;-58
2022/06/26 02:32:17;;;;;;;26.80;6.28;;;;;;;16.44;100.00;97814.31;5010635;28;20034;-58
2022/06/26 02:34:43;;;;;;;35.70;7.22;;;;;;;16.23;100.00;97812.19;5010971;28;20041;-58
2022/06/26 02:37:08;;;;;;;31.23;6.95;;;;;;;16.33;100.00;97809.78;5010732;28;20092;-60
2022/06/26 02:39:33;;;;;;;32.10;6.60;;;;;;;16.26;100.00;97814.59;5010727;28;20562;-60
2022/06/26 02:41:59;;;;;;;29.65;6.82;;;;;;;16.61;100.00;97815.81;5010783;28;20033;-61
2022/06/26 02:44:24;;;;;;;26.95;6.63;;;;;;;16.21;100.00;97814.09;5011011;28;20076;-58
2022/06/26 02:46:49;;;;;;;33.80;7.18;;;;;;;16.08;100.00;97823.72;5010725;28;20073;-59
2022/06/26 02:49:15;;;;;;;28.45;6.45;;;;;;;15.99;100.00;97818.16;5010386;28;20057;-57
2022/06/26 02:51:40;;;;;;;27.27;6.47;;;;;;;16.34;100.00;97820.22;5007667;28;20041;-57
2022/06/26 02:54:06;;;;;;;30.65;6.78;;;;;;;16.26;100.00;97819.88;5010010;28;20459;-57
2022/06/26 02:56:31;;;;;;;26.95;6.28;;;;;;;16.26;100.00;97822.50;5012038;28;20045;-57
2022/06/26 02:58:56;;;;;;;27.63;6.57;;;;;;;16.18;100.00;97815.13;5010131;28;20040;-59
2022/06/26 03:01:22;;;;;;;29.30;6.72;;;;;;;16.15;100.00;97825.00;5008532;28;20111;-58
2022/06/26 03:03:47;;;;;;;28.25;6.55;;;;;;;16.35;100.00;97821.88;5010934;28;20024;-59
2022/06/26 03:06:12;;;;;;;26.15;6.60;;;;;;;16.25;100.00;97820.84;5008864;28;20052;-58
2022/06/26 03:08:38;;;;;;;29.27;6.50;;;;;;;16.40;100.00;97824.22;5013102;28;20817;-58
2022/06/26 03:11:03;;;;;;;34.08;6.78;;;;;;;16.32;100.00;97826.50;5008379;28;20036;-57
2022/06/26 03:13:29;;;;;;;28.65;6.38;;;;;;;16.32;100.00;97827.38;5011173;28;20346;-59
2022/06/26 03:15:54;;;;;;;25.63;6.53;;;;;;;16.21;100.00;97829.88;5007640;28;20036;-59
2022/06/26 03:18:20;;;;;;;25.23;6.25;;;;;;;16.09;100.00;97833.31;5012208;28;20022;-57
2022/06/26 03:20:45;;;;;;;28.95;6.82;;;;;;;15.98;100.00;97834.84;5008880;28;20044;-58
2022/06/26 03:23:11;;;;;;;24.55;6.20;;;;;;;16.50;100.00;97829.69;5010804;28;20024;-59
2022/06/26 03:25:36;;;;;;;23.95;6.28;;;;;;;16.12;100.00;97839.22;5011685;28;20048;-58
2022/06/26 03:28:02;;;;;;;24.25;6.53;;;;;;;16.24;100.00;97829.66;5011337;28;20037;-57
2022/06/26 03:30:28;;;;;;;31.02;7.03;;;;;;;16.34;100.00;97841.28;5009149;28;20044;-58
2022/06/26 03:32:53;;;;;;;22.80;5.70;;;;;;;16.41;100.00;97836.41;5009519;28;20021;-59
2022/06/26 03:35:18;;;;;;;28.08;6.47;;;;;;;16.23;100.00;97837.66;5009258;28;20025;-60
2022/06/26 03:37:44;;;;;;;25.10;6.15;;;;;;;16.38;100.00;97848.00;5010808;28;20053;-60
2022/06/26 03:40:10;;;;;;;35.60;6.78;;;;;;;16.53;100.00;97840.03;5008227;28;20037;-59
2022/06/26 03:42:36;;;;;;;22.55;5.95;;;;;;;16.35;100.00;97837.69;5009547;28;20029;-60
2022/06/26 03:45:03;;;;;;;34.88;7.45;;;;;;;16.47;100.00;97838.66;5009087;28;20869;-59
2022/06/26 03:47:28;;;;;;;31.73;6.07;;;;;;;16.90;100.00;97841.00;5007165;28;20127;-58
2022/06/26 03:49:54;;;;;;;27.60;5.70;;;;;;;16.67;100.00;97837.31;5007615;28;21063;-57
2022/06/26 03:52:21;;;;;;;35.83;7.43;;;;;;;16.37;100.00;97833.16;5004133;28;20037;-57
2022/06/26 03:54:46;;;;;;;23.30;6.18;;;;;;;16.41;100.00;97846.13;5008714;28;20511;-57
2022/06/26 03:57:11;;;;;;;22.52;5.78;;;;;;;16.87;100.00;97830.69;5008871;28;20037;-57
2022/06/26 03:59:38;;;;;;;27.35;6.30;;;;;;;16.92;100.00;97831.19;5008640;28;20161;-58
2022/06/26 04:02:04;;;;;;;27.42;5.47;;;;;;;17.40;100.00;97819.94;5007359;28;20042;-56
2022/06/26 04:04:30;;;;;;;29.13;6.28;;;;;;;17.07;100.00;97818.75;5008427;28;20029;-57
2022/06/26 04:06:56;;;;;;;29.52;6.32;;;;;;;17.02;100.00;97823.50;5008006;28;20041;-57
2022/06/26 04:09:21;;;;;;;26.33;5.70;;;;;;;17.57;100.00;97828.41;5008635;28;20029;-58
2022/06/26 04:11:46;;;;;;;37.83;6.88;;;;;;;17.72;100.00;97804.41;5005538;28;20034;-57
2022/06/26 04:14:12;;;;;;;33.28;6.13;;;;;;;17.58;100.00;97816.94;5007014;28;20120;-59
2022/06/26 04:16:37;;;;;;;22.48;5.50;;;;;;;18.11;100.00;97814.81;5008293;28;20049;-57
2022/06/26 04:19:03;;;;;;;30.60;6.20;;;;;;;19.48;100.00;97790.16;5007073;28;20028;-56
2022/06/26 04:21:28;;;;;;;21.77;5.50;;;;;;;19.04;100.00;97793.63;5006182;28;20774;-59
2022/06/26 04:23:53;;;;;;;24.58;5.43;;;;;;;19.47;100.00;97805.22;5009135;28;20061;-60
2022/06/26 04:26:19;;;;;;;32.00;6.05;;;;;;;21.15;100.00;97788.56;5010604;28;20037;-59
2022/06/26 04:28:45;;;;;;;33.85;6.25;;;;;;;20.79;100.00;97793.44;5005458;28;20643;-60
2022/06/26 04:31:10;;;;;;;19.77;4.95;;;;;;;21.07;100.00;97796.34;5008932;28;20037;-57
2022/06/26 04:33:36;;;;;;;24.55;5.25;;;;;;;20.73;100.00;97802.75;5008704;28;20026;-60
2022/06/26 04:36:01;;;;;;;25.58;5.07;;;;;;;21.96;100.00;97796.38;5008792;28;20083;-58
2022/06/26 04:38:26;;;;;;;20.40;4.97;;;;;;;21.28;100.00;97794.44;5007406;28;20112;-57
2022/06/26 04:40:52;;;;;;;28.98;6.03;;;;;;;20.64;100.00;97785.00;5007564;28;22077;-59
2022/06/26 04:43:17;;;;;;;28.75;5.90;;;;;;;20.08;100.00;97799.38;5008320;28;20677;-60
2022/06/26 04:45:43;;;;;;;22.42;4.55;;;;;;;21.71;100.00;97795.13;5005307;28;20037;-57
2022/06/26 04:48:08;;;;;;;23.98;5.25;;;;;;;20.83;100.00;97802.81;5007798;28;20025;-57
2022/06/26 04:50:34;;;;;;;18.65;4.75;;;;;;;21.07;100.00;97799.00;5006719;28;20052;-58
2022/06/26 04:52:59;;;;;;;27.05;5.03;;;;;;;21.32;100.00;97797.66;5007278;28;20037;-58
2022/06/26 04:55:24;;;;;;;21.15;4.65;;;;;;;22.53;100.00;97793.84;5008171;28;20519;-57
2022/06/26 04:57:50;;;;;;;21.52;4.78;;;;;;;23.47;100.00;97788.47;5007469;28;20026;-57
2022/06/26 05:00:16;;;;;;;21.92;5.00;;;;;;;24.38;100.00;97784.81;5006877;28;20029;-58
2022/06/26 05:02:41;;;;;;;18.13;4.55;;;;;;;25.13;100.00;97789.59;5008828;28;20021;-58
2022/06/26 05:05:07;;;;;;;19.08;4.70;;;;;;;27.87;97.26;97786.34;5011908;28;20116;-59
2022/06/26 05:07:34;;;;;;;14.23;3.80;;;;;;;28.70;81.14;97788.41;5011160;28;20042;-59
2022/06/26 05:09:59;;;;;;;21.85;4.70;;;;;;;29.50;69.86;97784.97;5019655;28;20025;-59
2022/06/26 05:12:25;;;;;;;18.90;4.10;;;;;;;28.21;75.37;97785.16;5009544;28;20048;-60
2022/06/26 05:14:51;;;;;;;15.65;3.50;;;;;;;29.98;62.32;97784.47;5011123;28;20108;-58
2022/06/26 05:17:16;;;;;;;16.60;4.07;;;;;;;31.52;58.32;97775.59;5010293;28;20156;-58
2022/06/26 05:19:41;;;;;;;11.95;3.33;;;;;;;30.77;60.50;97772.72;5010995;28;20086;-58
2022/06/26 05:22:07;;;;;;;13.05;3.63;;;;;;;31.17;57.93;97781.00;5010178;28;20451;-59
2022/06/26 05:24:32;;;;;;;12.07;3.30;;;;;;;32.42;53.39;97775.34;5012128;28;20060;-57
2022/06/26 05:26:58;;;;;;;12.43;3.33;;;;;;;33.68;49.03;97776.09;5013235;28;20049;-57
2022/06/26 05:29:24;;;;;;;10.07;2.90;;;;;;;32.96;51.27;97784.25;5011201;28;20113;-58
2022/06/26 05:31:50;;;;;;;12.02;3.33;;;;;;;32.44;49.89;97784.91;5010852;28;20042;-56
2022/06/26 05:34:15;;;;;;;10.82;3.20;;;;;;;34.59;47.11;97782.94;5013770;28;20030;-58
2022/06/26 05:36:41;;;;;;;11.82;2.95;;;;;;;35.87;42.77;97778.56;5010927;28;20533;-57
2022/06/26 05:39:06;;;;;;;11.95;3.22;;;;;;;35.13;43.29;97786.78;5008971;28;20037;-56
2022/06/26 05:41:32;;;;;;;10.00;2.90;;;;;;;33.20;46.73;97788.97;5008260;28;21276;-56
2022/06/26 05:44:00;;;;;;;10.32;3.05;;;;;;;32.47;49.66;97797.13;5013344;28;20460;-56
2022/06/26 05:46:25;;;;;;;10.75;2.85;;;;;;;33.44;46.60;97805.50;5011428;28;20095;-57
2022/06/26 05:48:51;;;;;;;6.43;2.55;;;;;;;32.59;47.25;97805.47;5011453;28;20030;-57
2022/06/26 05:51:16;;;;;;;10.13;2.85;;;;;;;32.49;50.39;97811.25;5010347;28;20061;-56
2022/06/26 05:53:42;;;;;;;9.43;2.65;;;;;;;35.86;42.92;97803.22;5009386;28;20551;-58
2022/06/26 05:56:07;;;;;;;11.57;3.40;;;;;;;34.19;45.13;97807.66;5008979;28;20049;-57
2022/06/26 05:58:33;;;;;;;9.38;3.10;;;;;;;36.87;39.57;97807.94;5010392;28;20037;-57
2022/06/26 06:00:58;;;;;;;9.10;3.08;;;;;;;33.13;45.35;97804.38;5008106;28;20637;-57
2022/06/26 06:03:24;;;;;;;9.45;2.95;;;;;;;33.98;45.28;97801.50;5011175;28;20021;-57
2022/06/26 06:05:49;;;;;;;9.45;3.05;;;;;;;33.74;45.06;97796.88;5010153;28;20033;-58
2022/06/26 06:08:14;;;;;;;8.23;3.05;;;;;;;35.10;44.36;97802.66;5011064;28;20030;-57
2022/06/26 06:10:40;;;;;;;13.30;3.50;;;;;;;33.68;44.07;97805.84;5011863;28;20034;-57
2022/06/26 06:13:05;;;;;;;9.15;2.95;;;;;;;36.34;40.63;97801.50;5010392;28;20026;-57
2022/06/26 06:15:31;;;;;;;9.82;3.13;;;;;;;36.78;40.39;97796.59;5009930;28;20045;-57
2022/06/26 06:17:56;;;;;;;9.68;2.85;;;;;;;36.73;39.35;97797.31;5009652;28;20045;-59
2022/06/26 06:20:25;;;;;;;8.15;2.63;;;;;;;36.69;38.76;97792.56;5008518;28;20037;-57
2022/06/26 06:22:53;;;;;;;6.38;2.60;;;;;;;35.96;39.96;97794.53;5010233;28;20060;-57
2022/06/26 06:25:20;;;;;;;8.70;2.85;;;;;;;37.67;37.74;97795.53;5008981;28;20121;-58
2022/06/26 06:27:45;;;;;;;7.38;2.47;;;;;;;37.31;37.20;97790.16;5011563;28;21185;-58
2022/06/26 06:30:12;;;;;;;11.00;3.15;;;;;;;38.62;35.86;97793.09;5010464;28;20108;-57
2022/06/26 06:32:38;;;;;;;6.88;2.53;;;;;;;37.05;38.19;97789.56;5012413;28;20538;-57
2022/06/26 06:35:04;;;;;;;8.57;3.17;;;;;;;37.92;35.85;97796.00;5011715;28;20029;-59
2022/06/26 06:37:29;;;;;;;8.25;2.70;;;;;;;36.65;38.71;97794.91;5010535;28;20036;-58
2022/06/26 06:39:54;;;;;;;9.15;2.88;;;;;;;36.43;39.15;97795.50;5010055;28;20033;-57
2022/06/26 06:42:20;;;;;;;8.88;3.05;;;;;;;36.75;39.32;97803.31;5009025;28;20041;-57
2022/06/26 06:44:45;;;;;;;8.07;2.47;;;;;;;37.00;38.81;97800.38;5009658;28;20090;-53
2022/06/26 06:47:14;;;;;;;9.38;2.65;;;;;;;37.55;35.79;97801.81;5009735;28;20161;-54
2022/06/26 06:49:39;;;;;;;9.70;2.80;;;;;;;38.92;35.12;97793.53;5007583;28;20088;-53
2022/06/26 06:52:05;;;;;;;7.60;2.72;;;;;;;39.13;35.71;97799.28;5011552;28;20769;-53
2022/06/26 06:54:32;;;;;;;6.35;2.55;;;;;;;38.74;34.67;97797.38;5010064;28;20041;-54
2022/06/26 06:56:57;;;;;;;7.13;2.60;;;;;;;39.62;34.03;97796.66;5007861;28;20057;-55
2022/06/26 06:59:23;;;;;;;8.48;2.45;;;;;;;39.37;34.61;97794.41;5009014;28;20801;-54
2022/06/26 07:01:48;;;;;;;6.00;2.30;;;;;;;38.87;34.59;97807.09;5008478;28;20082;-54
2022/06/26 07:04:14;;;;;;;7.85;2.25;;;;;;;38.10;36.41;97814.00;5009562;28;20037;-53
2022/06/26 07:06:39;;;;;;;6.35;2.47;;;;;;;37.64;36.33;97806.88;5008597;28;20578;-54
2022/06/26 07:09:05;;;;;;;6.07;2.30;;;;;;;39.45;33.91;97806.81;5009974;28;20059;-56
2022/06/26 07:11:31;;;;;;;6.22;2.30;;;;;;;40.83;32.20;97805.44;5007373;28;20084;-54
2022/06/26 07:13:56;;;;;;;5.38;2.28;;;;;;;39.10;34.16;97802.56;5008531;28;20053;-55
2022/06/26 07:16:22;;;;;;;8.75;2.83;;;;;;;37.26;36.93;97805.53;5009116;28;20503;-56
2022/06/26 07:18:47;;;;;;;9.05;2.58;;;;;;;37.59;35.76;97802.16;5007450;28;20029;-55
2022/06/26 07:21:13;;;;;;;5.80;2.00;;;;;;;37.82;34.92;97805.88;5007370;28;20036;-55
2022/06/26 07:23:38;;;;;;;8.10;2.55;;;;;;;39.00;34.36;97807.81;5010307;28;20022;-57
2022/06/26 07:26:04;;;;;;;6.22;2.15;;;;;;;38.93;33.23;97806.13;5009211;28;20038;-56
2022/06/26 07:28:29;;;;;;;17.90;4.00;;;;;;;39.05;31.17;97802.47;5001014;28;20029;-56
2022/06/26 07:30:55;;;;;;;11.45;2.97;;;;;;;39.51;31.17;97801.16;5003073;28;20034;-54
2022/06/26 07:36:05;;;;;;;10.13;2.75;;;;;;;38.25;31.95;97801.75;5004187;28;20736;-52
2022/06/26 07:38:30;;;;;;;12.55;3.17;;;;;;;38.97;31.72;97800.13;5004739;28;20038;-53
2022/06/26 07:40:56;;;;;;;9.85;2.67;;;;;;;36.64;34.11;97788.66;5003083;28;20065;-53
2022/06/26 07:43:21;;;;;;;10.98;2.95;;;;;;;37.56;33.68;97789.84;5004560;28;20029;-53
2022/06/26 07:45:48;;;;;;;9.77;2.65;;;;;;;36.90;33.85;97783.00;5003298;28;20745;-53
2022/06/26 07:48:13;;;;;;;10.63;2.85;;;;;;;38.70;32.34;97779.06;5008568;28;20033;-54
2022/06/26 07:50:39;;;;;;;11.60;3.00;;;;;;;39.52;31.45;97785.66;5004366;28;20064;-54
2022/06/26 07:53:04;;;;;;;9.27;2.60;;;;;;;38.85;31.46;97792.91;5007161;28;20407;-53
2022/06/26 07:55:30;;;;;;;9.35;2.65;;;;;;;38.23;31.70;97788.38;5009494;28;20041;-55
2022/06/26 07:57:55;;;;;;;9.77;2.63;;;;;;;39.38;29.56;97785.16;5006959;28;20017;-55
2022/06/26 08:00:21;;;;;;;15.55;3.53;;;;;;;41.16;27.79;97780.72;5002596;28;20025;-54
2022/06/26 08:02:46;;;;;;;12.35;3.05;;;;;;;40.79;28.10;97778.91;5005633;28;20404;-55
2022/06/26 08:05:12;;;;;;;9.68;2.60;;;;;;;38.89;30.11;97791.31;5006917;28;20076;-55
2022/06/26 08:07:37;;;;;;;9.88;2.58;;;;;;;40.49;28.83;97793.13;5008097;28;20060;-58
2022/06/26 08:10:03;;;;;;;13.63;3.45;;;;;;;40.41;28.31;97792.53;5003105;28;20048;-54
2022/06/26 08:12:29;;;;;;;12.25;2.80;;;;;;;37.66;31.42;97789.22;5004838;28;20858;-55
2022/06/26 08:14:54;;;;;;;10.75;2.83;;;;;;;38.54;30.84;97786.13;5005192;28;20105;-53
2022/06/26 08:17:20;;;;;;;14.48;3.40;;;;;;;38.98;30.20;97796.34;5004848;28;20049;-55
2022/06/26 08:19:47;;;;;;;10.75;2.88;;;;;;;38.42;31.52;97794.41;5007200;28;20432;-55
2022/06/26 08:22:13;;;;;;;11.52;3.00;;;;;;;37.27;31.36;97782.72;5004947;28;20053;-55
2022/06/26 08:24:40;;;;;;;12.25;3.00;;;;;;;37.68;31.58;97778.97;5006096;28;20029;-53
2022/06/26 08:27:05;;;;;;;14.48;3.58;;;;;;;37.11;32.39;97778.81;5004900;28;20040;-55
2022/06/26 08:29:30;;;;;;;11.40;3.08;;;;;;;38.27;31.37;97777.81;5003178;28;20025;-53
2022/06/26 08:31:56;;;;;;;9.70;2.70;;;;;;;36.98;32.25;97774.47;5004721;28;20037;-55
2022/06/26 08:34:22;;;;;;;11.43;2.80;;;;;;;39.83;30.41;97775.03;5007246;28;20686;-54
2022/06/26 08:36:47;;;;;;;12.60;2.92;;;;;;;38.42;31.23;97764.44;5005225;28;20041;-54
2022/06/26 08:39:13;;;;;;;9.82;2.90;;;;;;;41.02;28.10;97780.38;5006127;28;20078;-53
2022/06/26 08:41:45;;;;;;;11.43;3.05;;;;;;;35.62;33.60;97767.00;5006055;28;20507;-53
2022/06/26 08:44:10;;;;;;;13.45;3.03;;;;;;;37.39;32.75;97767.22;5005890;28;20097;-55
2022/06/26 08:46:39;;;;;;;10.45;2.40;;;;;;;36.43;32.34;97767.50;5004870;28;20040;-55
2022/06/26 08:49:09;;;;;;;7.95;2.28;;;;;;;35.85;33.47;97767.13;5007392;28;20030;-55
2022/06/26 08:51:39;;;;;;;12.95;3.13;;;;;;;38.43;31.12;97763.34;4999725;28;20049;-53
2022/06/26 08:54:05;;;;;;;11.68;3.15;;;;;;;38.19;31.94;97768.97;5003707;28;20651;-54
2022/06/26 08:56:32;;;;;;;13.10;3.28;;;;;;;40.02;29.27;97759.13;5003504;28;20037;-55
2022/06/26 08:58:58;;;;;;;10.93;2.88;;;;;;;40.28;28.86;97754.72;5004964;28;20531;-54
2022/06/26 09:01:23;;;;;;;14.10;3.38;;;;;;;36.83;32.67;97755.94;5003708;28;20053;-54
2022/06/26 09:03:48;;;;;;;12.80;3.25;;;;;;;38.41;31.87;97759.25;5004299;28;20095;-53
2022/06/26 09:06:14;;;;;;;10.65;2.85;;;;;;;35.98;34.21;97754.44;5006577;28;20048;-53
2022/06/26 09:08:45;;;;;;;18.77;4.10;;;;;;;35.95;33.73;97754.88;5007873;28;20586;-55
2022/06/26 09:11:11;;;;;;;8.77;2.53;;;;;;;36.82;32.94;97759.75;5002953;28;20125;-53
2022/06/26 09:13:38;;;;;;;12.00;2.65;;;;;;;39.29;29.57;97757.50;5004034;28;20030;-54
2022/06/26 09:16:05;;;;;;;11.02;2.92;;;;;;;37.52;31.40;97763.38;5003689;28;20043;-54
2022/06/26 09:18:38;;;;;;;13.13;3.28;;;;;;;38.60;30.44;97759.81;5002214;28;20030;-54
2022/06/26 09:21:05;;;;;;;15.20;3.42;;;;;;;39.74;29.22;97765.66;5002633;28;20049;-54
2022/06/26 09:23:32;;;;;;;13.35;3.08;;;;;;;37.50;31.79;97758.16;5006890;28;20029;-56
2022/06/26 09:25:59;;;;;;;13.98;3.17;;;;;;;39.42;29.08;97741.81;5003993;28;20042;-54
2022/06/26 09:28:25;;;;;;;13.80;3.42;;;;;;;38.05;30.91;97756.75;5004865;28;20045;-53
2022/06/26 09:30:56;;;;;;;9.00;2.47;;;;;;;38.15;30.62;97750.66;5003663;28;20034;-54
2022/06/26 09:33:33;;;;;;;10.57;2.60;;;;;;;40.68;27.88;97747.91;5007418;28;20140;-53
2022/06/26 09:36:00;;;;;;;14.40;3.45;;;;;;;36.82;31.85;97743.44;5003635;28;20045;-53
2022/06/26 09:38:28;;;;;;;19.20;3.70;;;;;;;38.51;30.43;97753.97;5004685;28;20030;-55
2022/06/26 09:41:01;;;;;;;17.13;3.40;;;;;;;38.37;30.00;97748.84;5001672;28;20049;-54
2022/06/26 09:43:38;;;;;;;15.18;3.20;;;;;;;37.46;31.59;97737.97;5003591;28;20038;-53
2022/06/26 09:46:09;;;;;;;24.80;4.32;;;;;;;37.87;32.10;97736.00;5003085;28;20046;-54
2022/06/26 09:48:35;;;;;;;18.27;3.30;;;;;;;38.72;29.98;97727.84;5004493;28;20045;-55
2022/06/26 09:51:02;;;;;;;17.13;3.30;;;;;;;40.15;28.67;97731.38;5006198;28;20042;-55
2022/06/26 09:53:28;;;;;;;16.50;3.22;;;;;;;38.77;29.68;97733.38;5008607;28;20033;-56
2022/06/26 09:55:56;;;;;;;17.77;3.45;;;;;;;39.14;30.28;97736.31;5009378;28;20671;-53
2022/06/26 09:58:23;;;;;;;15.68;3.22;;;;;;;36.91;31.80;97731.13;5005390;28;20602;-53
2022/06/26 10:06:26;;;;;;;22.23;3.92;;;;;;;39.03;29.20;97739.19;5010322;28;20142;-54
2022/06/26 10:08:53;;;;;;;14.85;3.13;;;;;;;40.21;28.19;97734.97;5008886;28;20384;-55
2022/06/26 10:11:22;;;;;;;16.77;3.22;;;;;;;39.62;29.06;97738.53;5005139;28;20120;-55
2022/06/26 10:13:48;;;;;;;14.00;3.00;;;;;;;38.59;29.25;97745.38;5007933;28;20080;-56
2022/06/26 10:16:58;;;;;;;18.15;3.67;;;;;;;36.83;31.60;97728.75;5004041;28;20421;-58
2022/06/26 10:19:23;;;;;;;14.73;3.00;;;;;;;38.73;29.14;97734.97;4981245;28;20041;-56
2022/06/26 10:21:51;;;;;;;12.07;2.70;;;;;;;38.28;30.11;97727.72;5006629;28;20041;-54
2022/06/26 10:24:16;;;;;;;16.30;3.28;;;;;;;38.78;29.32;97737.72;5009396;28;20021;-54
2022/06/26 10:26:56;;;;;;;16.13;3.15;;;;;;;34.95;33.49;97732.59;5008797;28;20052;-56
2022/06/26 10:29:38;;;;;;;30.35;5.25;;;;;;;33.56;35.65;97727.25;5006454;28;20693;-57
2022/06/26 10:32:05;;;;;;;16.48;3.30;;;;;;;33.32;36.11;97729.66;5006575;28;20778;-56
2022/06/26 10:34:31;;;;;;;27.73;4.72;;;;;;;34.90;33.82;97724.31;5024841;28;20017;-55
2022/06/26 10:37:13;;;;;;;25.08;4.45;;;;;;;37.19;31.24;97726.84;5008120;28;20045;-55
2022/06/26 10:39:39;;;;;;;18.23;3.63;;;;;;;38.26;29.42;97721.69;5008455;28;20026;-55
2022/06/26 10:45:24;;;;;;;23.30;4.25;;;;;;;37.19;29.99;97724.13;5005528;28;20903;-53
2022/06/26 10:47:54;;;;;;;14.40;2.88;;;;;;;37.41;29.28;97724.28;5007113;28;20096;-53
2022/06/26 10:50:24;;;;;;;26.10;4.47;;;;;;;36.04;31.46;97720.91;5007273;28;20037;-53
2022/06/26 10:52:49;;;;;;;24.95;4.32;;;;;;;35.41;32.66;97709.50;5008456;28;20026;-52
2022/06/26 10:55:15;;;;;;;22.17;3.95;;;;;;;36.79;30.95;97703.97;5009818;28;20036;-54
2022/06/26 10:57:40;;;;;;;22.08;3.95;;;;;;;37.19;30.32;97710.53;5007366;28;20029;-55
2022/06/26 11:00:08;;;;;;;31.92;5.25;;;;;;;37.68;30.01;97708.22;5006711;28;20022;-53
2022/06/26 11:02:36;;;;;;;22.08;3.70;;;;;;;35.65;31.50;97696.03;5005707;28;20057;-55
2022/06/26 11:05:03;;;;;;;18.15;3.38;;;;;;;33.72;34.31;97698.91;5016403;28;20695;-56
2022/06/26 11:07:28;;;;;;;14.82;2.92;;;;;;;33.34;34.25;97699.72;5006363;28;20041;-55
2022/06/26 11:09:57;;;;;;;16.65;3.00;;;;;;;33.68;34.61;97703.09;5005394;28;20039;-54
2022/06/26 11:12:22;;;;;;;15.80;3.00;;;;;;;33.76;34.88;97694.69;5004445;28;20029;-54
2022/06/26 11:14:48;;;;;;;18.02;3.17;;;;;;;32.53;36.00;97695.59;5004877;28;20025;-55
2022/06/26 11:17:13;;;;;;;23.45;3.88;;;;;;;33.05;36.53;97693.81;5004189;28;20050;-56
2022/06/26 11:22:27;;;;;;;24.92;4.03;;;;;;;33.45;35.00;97698.19;5006980;28;20092;-57
2022/06/26 11:24:54;;;;;;;18.73;3.38;;;;;;;34.75;34.00;97693.00;5007918;28;20507;-57
2022/06/26 11:27:24;;;;;;;25.58;4.05;;;;;;;36.00;32.40;97688.00;5007780;28;20052;-57
2022/06/26 11:29:51;;;;;;;25.13;3.70;;;;;;;36.77;29.83;97688.97;5004890;28;20044;-54
2022/06/26 11:32:20;;;;;;;24.15;4.03;;;;;;;37.01;29.43;97687.84;5003546;28;22627;-54
2022/06/26 11:34:56;;;;;;;22.10;3.88;;;;;;;33.10;34.66;97690.44;5007242;28;20588;-57
2022/06/26 11:37:35;;;;;;;27.85;4.63;;;;;;;33.60;35.03;97685.19;5005557;28;20600;-55
2022/06/26 11:40:14;;;;;;;33.17;5.18;;;;;;;34.22;34.15;97684.56;5004748;28;20053;-53